Time;durP1;ratioP1;P1;durP2;ratioP2;P2;SDS_P1;SDS_P2;PMS_P1;PMS_P2;Temp;Humidity;BMP_temperature;BMP_pressure;BME280_temperature;BME280_humidity;BME280_pressure;Samples;Min_cycle;Max_cycle;Signal;HPM_P1;HPM_P2
2023/11/24 00:01:24;;;;;;;13.68;3.50;;;;;;;13.38;94.68;101706.03;5053342;28;20148;-73
2023/11/24 00:03:51;;;;;;;14.77;4.30;;;;;;;13.73;92.92;101693.38;5055228;28;20052;-73
2023/11/24 00:06:19;;;;;;;19.98;3.80;;;;;;;13.71;91.28;101684.56;5036606;28;20057;-72
2023/11/24 00:08:47;;;;;;;18.23;4.50;;;;;;;13.68;92.23;101687.97;5079220;28;20040;-72
2023/11/24 00:11:15;;;;;;;14.35;3.28;;;;;;;13.38;92.35;101690.25;5074800;28;20056;-71
2023/11/24 00:13:42;;;;;;;16.50;3.88;;;;;;;12.90;93.97;101679.88;5074907;28;20063;-71
2023/11/24 00:16:09;;;;;;;16.38;4.05;;;;;;;12.80;95.32;101691.91;5063237;28;20060;-72
2023/11/24 00:18:37;;;;;;;16.48;4.10;;;;;;;12.72;98.46;101684.34;5054028;28;20045;-72
2023/11/24 00:21:09;;;;;;;23.08;3.92;;;;;;;12.90;97.21;101672.38;5055635;28;20052;-71
2023/11/24 00:23:36;;;;;;;15.63;3.38;;;;;;;13.08;95.03;101665.97;5054164;28;20056;-73
2023/11/24 00:26:07;;;;;;;17.00;3.78;;;;;;;13.07;95.12;101647.75;5054445;28;20064;-73
2023/11/24 00:28:45;;;;;;;15.17;3.73;;;;;;;13.31;92.45;101645.56;5039536;28;20041;-74
2023/11/24 00:31:12;;;;;;;13.45;4.13;;;;;;;13.15;94.45;101649.78;5054771;28;20057;-69
2023/11/24 00:33:39;;;;;;;17.42;4.00;;;;;;;13.05;93.80;101640.88;5043055;28;20050;-68
2023/11/24 00:36:10;;;;;;;10.82;3.55;;;;;;;13.38;95.68;101637.69;5034226;28;20049;-67
2023/11/24 00:38:38;;;;;;;13.35;3.92;;;;;;;12.79;94.82;101632.22;5028960;28;20049;-68
2023/11/24 00:41:09;;;;;;;12.10;3.85;;;;;;;13.04;98.30;101631.75;5047346;28;20485;-68
2023/11/24 00:43:36;;;;;;;12.50;4.05;;;;;;;12.76;97.78;101632.81;5034691;28;20060;-67
2023/11/24 00:46:06;;;;;;;12.75;3.47;;;;;;;13.02;97.05;101628.47;5037426;28;20057;-67
2023/11/24 00:48:33;;;;;;;19.70;4.35;;;;;;;12.87;97.61;101622.38;5055577;28;20079;-68
2023/11/24 00:51:01;;;;;;;14.55;4.80;;;;;;;12.83;97.24;101624.94;5050647;28;20519;-66
2023/11/24 00:53:29;;;;;;;13.32;4.50;;;;;;;12.69;99.59;101618.59;5030458;28;20049;-67
2023/11/24 00:55:56;;;;;;;20.95;4.82;;;;;;;13.02;99.02;101627.66;5032947;28;20045;-73
2023/11/24 00:58:25;;;;;;;16.17;4.68;;;;;;;13.03;97.98;101629.28;5050499;28;20516;-70
2023/11/24 01:01:46;;;;;;;15.10;4.40;;;;;;;13.12;98.05;101619.97;5054876;28;20415;-75
2023/11/24 01:05:50;;;;;;;;;;;;;;;;;;;;;
2023/11/24 01:09:21;;;;;;;17.08;4.78;;;;;;;12.44;100.00;101627.34;5058506;28;20063;-74
2023/11/24 01:12:56;;;;;;;15.32;5.28;;;;;;;12.72;100.00;101622.69;4912202;29;20052;-69
2023/11/24 01:15:38;;;;;;;21.52;6.13;;;;;;;12.96;100.00;101621.38;4904984;29;20059;-69
2023/11/24 01:19:50;;;;;;;;;;;;;;;;;;;;;
2023/11/24 01:23:48;;;;;;;17.15;4.25;;;;;;;13.90;94.21;101608.50;4934737;29;20056;-69
2023/11/24 01:27:04;;;;;;;;;;;;;;;;;;;;;
2023/11/24 01:30:10;;;;;;;18.55;5.68;;;;;;;13.19;95.83;101612.09;4892668;29;20059;-74
2023/11/24 01:32:45;;;;;;;17.65;4.82;;;;;;;12.69;98.84;101610.31;4902633;29;20066;-75
2023/11/24 01:35:56;;;;;;;25.38;5.82;;;;;;;12.82;100.00;101592.06;4890890;29;20052;-74
2023/11/24 01:38:55;;;;;;;20.70;5.57;;;;;;;12.77;100.00;101589.41;4871455;29;20055;-75
2023/11/24 01:49:52;;;;;;;21.65;5.57;;;;;;;12.49;100.00;101591.34;4909457;28;20371;-72
2023/11/24 01:56:34;;;;;;;18.52;6.32;;;;;;;12.63;100.00;101586.66;4946693;28;20050;-67
2023/11/24 01:59:02;;;;;;;23.00;5.68;;;;;;;12.92;100.00;101581.63;5012236;28;20057;-72
2023/11/24 02:01:31;;;;;;;15.05;5.00;;;;;;;12.54;100.00;101580.19;4995814;28;20057;-71
2023/11/24 02:03:58;;;;;;;19.27;5.25;;;;;;;12.81;100.00;101582.97;4995530;28;20073;-71
2023/11/24 02:06:27;;;;;;;15.70;4.75;;;;;;;12.72;100.00;101584.81;5012719;28;20057;-72
2023/11/24 02:08:55;;;;;;;15.02;5.30;;;;;;;12.52;100.00;101587.97;5032889;28;20053;-67
2023/11/24 02:11:22;;;;;;;16.52;5.70;;;;;;;12.75;100.00;101588.91;5068327;28;20049;-67
2023/11/24 02:13:50;;;;;;;14.75;4.53;;;;;;;12.40;100.00;101576.59;5050861;28;20045;-67
2023/11/24 02:16:18;;;;;;;16.45;5.10;;;;;;;12.39;100.00;101575.78;5051932;28;20048;-67
2023/11/24 02:18:46;;;;;;;19.63;5.03;;;;;;;12.11;100.00;101578.78;5035262;28;20052;-72
2023/11/24 02:21:14;;;;;;;20.77;5.70;;;;;;;12.52;100.00;101576.09;5051222;28;20068;-72
2023/11/24 02:23:42;;;;;;;18.85;4.97;;;;;;;13.06;100.00;101576.13;5051448;28;20440;-67
2023/11/24 02:26:24;;;;;;;17.45;4.78;;;;;;;12.92;100.00;101565.03;5035156;28;20072;-68
2023/11/24 02:29:42;;;;;;;19.15;5.30;;;;;;;13.15;100.00;101554.91;5039802;28;20049;-68
2023/11/24 02:32:33;;;;;;;13.98;5.38;;;;;;;13.74;98.20;101543.53;5038680;28;20052;-70
2023/11/24 02:35:05;;;;;;;21.85;5.00;;;;;;;13.78;94.60;101549.25;5051340;28;20059;-70
2023/11/24 02:38:38;;;;;;;21.85;5.13;;;;;;;13.98;95.18;101537.69;5009449;28;20050;-69
2023/11/24 02:41:11;;;;;;;18.45;5.20;;;;;;;13.95;93.54;101527.22;5009721;28;20064;-71
2023/11/24 02:47:30;;;;;;;20.17;4.75;;;;;;;14.07;94.33;101499.78;4933479;29;20052;-67
2023/11/24 02:50:39;;;;;;;16.23;4.63;;;;;;;14.16;91.44;101500.63;4952340;29;20051;-67
2023/11/24 02:53:09;;;;;;;25.08;4.90;;;;;;;14.42;91.88;101498.81;4994836;28;20062;-66
2023/11/24 02:55:37;;;;;;;18.38;4.95;;;;;;;13.65;92.99;101495.59;4973997;28;20088;-67
2023/11/24 02:58:05;;;;;;;20.27;5.03;;;;;;;13.55;96.50;101488.38;5016473;28;20052;-67
2023/11/24 03:00:43;;;;;;;17.55;4.25;;;;;;;14.20;93.91;101487.78;5013692;28;20057;-67
2023/11/24 03:03:11;;;;;;;19.23;4.57;;;;;;;14.28;91.32;101482.31;4993454;28;20050;-67
2023/11/24 03:05:38;;;;;;;21.30;4.72;;;;;;;14.10;91.09;101471.44;4993567;28;20056;-67
2023/11/24 03:08:06;;;;;;;19.17;4.60;;;;;;;13.42;93.89;101480.94;5001722;28;20056;-72
2023/11/24 03:10:33;;;;;;;22.58;4.70;;;;;;;13.26;99.81;101478.84;5012974;28;20058;-73
2023/11/24 03:13:00;;;;;;;22.95;4.95;;;;;;;13.56;97.30;101476.16;5012514;28;20169;-72
2023/11/24 03:15:27;;;;;;;15.02;4.20;;;;;;;13.51;96.20;101479.03;5044253;28;20065;-74
2023/11/24 03:17:56;;;;;;;17.38;4.53;;;;;;;13.89;94.76;101473.94;5052122;28;20041;-72
2023/11/24 03:20:25;;;;;;;17.10;4.57;;;;;;;13.90;93.58;101469.19;5034928;28;20049;-71
2023/11/24 03:22:52;;;;;;;21.63;4.40;;;;;;;14.01;93.56;101467.81;5034603;28;20306;-72
2023/11/24 03:25:19;;;;;;;23.00;4.78;;;;;;;13.97;94.03;101462.09;5034818;28;20052;-72
2023/11/24 03:27:48;;;;;;;17.23;4.38;;;;;;;13.46;94.58;101464.50;5056594;28;20057;-72
2023/11/24 03:30:16;;;;;;;25.23;5.78;;;;;;;13.34;96.49;101459.56;5055949;28;20045;-71
2023/11/24 03:32:43;;;;;;;22.15;4.30;;;;;;;13.78;97.17;101458.72;5055891;28;20057;-72
2023/11/24 03:35:10;;;;;;;17.42;4.93;;;;;;;13.60;95.79;101458.94;5054627;28;20045;-72
2023/11/24 03:37:38;;;;;;;20.27;4.55;;;;;;;13.77;95.92;101451.56;5054693;28;20045;-71
2023/11/24 03:40:05;;;;;;;28.42;4.80;;;;;;;14.06;95.43;101439.97;5056219;28;20053;-72
2023/11/24 03:42:33;;;;;;;15.75;4.43;;;;;;;14.24;93.58;101436.94;5053780;28;20057;-72
2023/11/24 03:45:01;;;;;;;15.02;3.80;;;;;;;13.86;92.09;101430.25;5038596;28;20060;-73
2023/11/24 03:47:30;;;;;;;15.55;4.25;;;;;;;13.29;96.63;101429.25;5054667;28;20064;-71
2023/11/24 03:50:01;;;;;;;12.40;4.50;;;;;;;13.24;97.79;101434.91;5038023;28;20052;-72
2023/11/24 03:52:28;;;;;;;;;;;;;;;12.96;99.50;101426.97;5038327;28;20053;-72
2023/11/24 03:54:55;;;;;;;13.88;4.72;;;;;;;12.97;100.00;101431.38;5054526;28;19928;-72
2023/11/24 03:57:22;;;;;;;17.55;4.13;;;;;;;13.19;100.00;101428.66;5055295;28;20056;-73
2023/11/24 04:00:39;;;;;;;15.85;4.18;;;;;;;13.10;100.00;101438.84;5054470;28;20041;-73
2023/11/24 04:03:32;;;;;;;10.88;3.90;;;;;;;12.99;100.00;101429.94;5040097;28;20049;-75
2023/11/24 04:06:00;;;;;;;8.30;3.25;;;;;;;13.08;100.00;101413.44;5038467;28;20060;-73
2023/11/24 04:08:39;;;;;;;12.45;3.83;;;;;;;13.46;100.00;101412.75;5068665;28;20051;-71
2023/11/24 04:11:07;;;;;;;17.60;4.50;;;;;;;13.28;100.00;101408.25;5072347;28;20057;-71
2023/11/24 04:13:34;;;;;;;15.45;3.90;;;;;;;13.20;100.00;101409.00;5053742;28;20053;-72
2023/11/24 04:16:02;;;;;;;13.45;4.13;;;;;;;13.81;100.00;101402.69;5056192;28;20056;-72
2023/11/24 04:18:30;;;;;;;15.55;3.97;;;;;;;13.54;97.67;101408.41;5054029;28;20045;-73
2023/11/24 04:20:57;;;;;;;17.58;4.47;;;;;;;13.74;99.28;101418.94;5054741;28;20048;-71
2023/11/24 04:23:25;;;;;;;13.77;3.70;;;;;;;13.32;98.37;101425.00;5036340;28;20045;-71
2023/11/24 04:25:52;;;;;;;13.63;3.30;;;;;;;12.93;100.00;101433.13;5039347;28;20056;-72
2023/11/24 04:28:20;;;;;;;11.95;3.95;;;;;;;12.75;100.00;101432.16;5059522;28;20053;-71
2023/11/24 04:30:48;;;;;;;14.05;3.72;;;;;;;12.72;100.00;101421.72;5046481;28;20540;-72
2023/11/24 04:33:15;;;;;;;10.77;3.58;;;;;;;12.87;100.00;101421.38;5042466;28;20053;-72
2023/11/24 04:35:43;;;;;;;11.98;3.45;;;;;;;13.06;100.00;101419.28;5047120;28;20064;-72
2023/11/24 04:38:10;;;;;;;10.95;3.83;;;;;;;12.87;100.00;101417.78;5051588;28;20451;-73
2023/11/24 04:40:37;;;;;;;9.43;3.40;;;;;;;12.66;100.00;101416.63;5050339;28;20051;-72
2023/11/24 04:43:04;;;;;;;7.45;3.03;;;;;;;12.58;100.00;101414.56;5034250;28;20050;-73
2023/11/24 04:45:32;;;;;;;10.77;3.13;;;;;;;12.60;100.00;101407.63;5033755;28;20086;-72
2023/11/24 04:47:59;;;;;;;13.10;3.45;;;;;;;12.58;100.00;101403.53;5033887;28;20092;-72
2023/11/24 04:50:26;;;;;;;11.88;3.35;;;;;;;12.98;100.00;101392.34;5033391;28;20703;-72
2023/11/24 04:52:54;;;;;;;10.90;3.50;;;;;;;13.12;100.00;101397.88;5038950;28;20065;-72
2023/11/24 04:55:21;;;;;;;16.30;3.95;;;;;;;12.74;100.00;101391.00;5054278;28;20052;-71
2023/11/24 04:57:54;;;;;;;10.45;3.28;;;;;;;12.89;100.00;101383.16;5048448;28;20491;-73
2023/11/24 05:00:22;;;;;;;11.93;3.22;;;;;;;12.75;100.00;101387.09;5054794;28;20049;-74
2023/11/24 05:03:00;;;;;;;10.38;3.40;;;;;;;13.03;100.00;101377.63;5053755;28;20056;-75
2023/11/24 05:05:27;;;;;;;14.52;4.18;;;;;;;12.99;100.00;101380.16;5054734;28;20044;-72
2023/11/24 05:08:09;;;;;;;11.95;3.45;;;;;;;13.18;100.00;101380.81;5060598;28;20044;-73
2023/11/24 05:10:43;;;;;;;9.23;3.80;;;;;;;13.30;100.00;101370.00;5042296;28;20060;-73
2023/11/24 05:13:34;;;;;;;11.30;3.60;;;;;;;12.91;100.00;101367.09;5084900;28;20527;-74
2023/11/24 05:16:07;;;;;;;12.73;4.03;;;;;;;13.25;100.00;101363.81;5068921;28;20075;-74
2023/11/24 05:18:34;;;;;;;9.70;3.78;;;;;;;13.65;100.00;101361.91;5071915;28;20079;-71
2023/11/24 05:21:03;;;;;;;10.70;3.85;;;;;;;13.74;98.07;101355.25;5074408;28;20040;-71
2023/11/24 05:23:37;;;;;;;12.98;5.03;;;;;;;13.28;100.00;101352.09;5055786;28;20060;-73
2023/11/24 05:26:34;;;;;;;19.65;5.30;;;;;;;13.12;100.00;101346.13;5022820;28;20053;-69
2023/11/24 05:29:27;;;;;;;14.27;5.18;;;;;;;12.86;100.00;101349.81;5052756;28;20052;-68
2023/11/24 05:32:24;;;;;;;16.75;4.57;;;;;;;12.52;100.00;101344.00;5031354;28;20061;-68
2023/11/24 05:35:08;;;;;;;14.27;5.10;;;;;;;12.67;100.00;101349.97;5033269;28;20068;-67
2023/11/24 05:37:47;;;;;;;14.13;4.13;;;;;;;12.48;100.00;101354.00;5050319;28;20507;-69
2023/11/24 05:40:55;;;;;;;;;;;;;;;;;;;;;
2023/11/24 05:43:41;;;;;;;9.60;3.88;;;;;;;12.71;100.00;101342.66;5036813;28;20068;-67
2023/11/24 05:46:08;;;;;;;12.15;4.82;;;;;;;12.68;100.00;101353.53;5052919;28;20048;-68
2023/11/24 05:48:35;;;;;;;13.57;4.72;;;;;;;12.49;100.00;101342.66;5050950;28;20057;-68
2023/11/24 05:51:04;;;;;;;13.85;3.90;;;;;;;12.92;100.00;101334.72;5053401;28;20528;-66
2023/11/24 05:53:32;;;;;;;12.82;3.97;;;;;;;12.79;100.00;101338.34;5052880;28;20040;-66
2023/11/24 05:55:59;;;;;;;11.60;3.83;;;;;;;12.79;100.00;101330.88;5051830;28;20061;-66
2023/11/24 05:58:57;;;;;;;11.45;4.25;;;;;;;12.54;100.00;101336.19;5054183;28;20159;-69
2023/11/24 06:02:15;;;;;;;11.93;4.20;;;;;;;12.73;100.00;101334.88;5022624;28;20061;-69
2023/11/24 06:05:12;;;;;;;12.65;3.72;;;;;;;12.81;100.00;101328.63;5004913;28;20058;-69
2023/11/24 06:08:04;;;;;;;12.15;3.97;;;;;;;12.93;100.00;101317.00;5039514;28;20644;-68
2023/11/24 06:11:18;;;;;;;14.63;4.25;;;;;;;12.49;100.00;101331.59;5071805;28;20068;-68
2023/11/24 06:13:56;;;;;;;13.45;3.80;;;;;;;12.57;100.00;101341.09;5037245;28;20053;-68
2023/11/24 06:16:58;;;;;;;13.77;4.45;;;;;;;12.57;100.00;101341.91;5065521;28;20041;-73
2023/11/24 06:19:38;;;;;;;12.15;3.92;;;;;;;12.56;100.00;101343.03;5052242;28;20060;-73
2023/11/24 06:22:09;;;;;;;12.65;4.45;;;;;;;12.59;100.00;101339.66;5052880;28;20048;-75
2023/11/24 06:24:53;;;;;;;11.70;3.75;;;;;;;12.55;100.00;101335.88;5053086;28;20045;-74
2023/11/24 06:27:21;;;;;;;17.17;3.88;;;;;;;12.65;100.00;101343.94;5053256;28;20044;-73
2023/11/24 06:30:13;;;;;;;9.82;3.65;;;;;;;12.56;100.00;101337.50;5051733;28;20053;-70
2023/11/24 06:32:55;;;;;;;;;;;;;;;;;;;;;
2023/11/24 06:36:21;;;;;;;11.60;4.38;;;;;;;12.80;100.00;101334.44;5066476;28;20048;-73
2023/11/24 06:39:11;;;;;;;14.07;4.30;;;;;;;12.41;100.00;101335.09;5052599;28;20044;-72
2023/11/24 06:42:11;;;;;;;10.90;3.95;;;;;;;12.71;100.00;101337.16;5051859;28;20166;-73
2023/11/24 06:48:23;;;;;;;16.17;4.65;;;;;;;12.34;100.00;101352.09;4983273;28;20053;-76
2023/11/24 06:50:52;;;;;;;13.82;5.03;;;;;;;12.16;100.00;101341.19;5053217;28;20060;-67
2023/11/24 06:53:37;;;;;;;10.30;4.47;;;;;;;12.06;100.00;101333.94;5051127;28;20152;-67
2023/11/24 06:56:12;;;;;;;16.67;5.18;;;;;;;12.06;100.00;101319.31;5033873;28;20432;-74
2023/11/24 06:58:47;;;;;;;15.23;4.75;;;;;;;12.13;100.00;101328.00;5069476;28;20044;-73
2023/11/24 07:01:31;;;;;;;14.57;4.93;;;;;;;11.93;100.00;101325.66;5051649;28;20058;-72
2023/11/24 07:04:02;;;;;;;12.07;4.35;;;;;;;12.23;100.00;101333.28;5051363;28;20377;-71
2023/11/24 07:06:30;;;;;;;15.70;4.47;;;;;;;12.18;100.00;101327.88;5050922;28;20435;-68
2023/11/24 07:08:58;;;;;;;13.98;4.43;;;;;;;11.96;100.00;101336.09;5068378;28;20052;-68
2023/11/24 07:11:29;;;;;;;12.48;3.85;;;;;;;12.12;100.00;101340.16;5068579;28;20038;-67
2023/11/24 07:13:56;;;;;;;11.80;3.70;;;;;;;11.83;100.00;101334.13;5052255;28;20079;-73
2023/11/24 07:16:24;;;;;;;16.25;4.07;;;;;;;11.86;100.00;101331.59;5036004;28;20049;-68
2023/11/24 07:18:52;;;;;;;13.77;3.83;;;;;;;11.77;100.00;101336.19;5052481;28;20056;-68
2023/11/24 07:21:22;;;;;;;16.25;4.45;;;;;;;11.78;100.00;101346.13;5034235;28;20057;-68
2023/11/24 07:23:50;;;;;;;9.27;3.58;;;;;;;11.59;100.00;101339.00;5050901;28;20052;-68
2023/11/24 07:26:18;;;;;;;17.17;3.70;;;;;;;11.78;100.00;101342.53;5036261;28;20606;-67
2023/11/24 07:28:55;;;;;;;13.48;3.58;;;;;;;11.87;100.00;101338.72;5031416;28;20168;-68
2023/11/24 07:31:25;;;;;;;13.52;3.63;;;;;;;11.62;100.00;101349.41;5032599;28;20173;-71
2023/11/24 07:33:55;;;;;;;12.15;3.58;;;;;;;12.05;100.00;101354.38;5044069;28;20563;-73
2023/11/24 07:36:49;;;;;;;15.68;3.25;;;;;;;12.10;100.00;101364.53;5051471;28;20516;-74
2023/11/24 07:39:16;;;;;;;13.55;2.83;;;;;;;11.95;93.23;101370.31;5070093;28;20059;-73
2023/11/24 07:41:44;;;;;;;11.35;2.83;;;;;;;11.59;90.16;101377.63;5051191;28;20041;-74
2023/11/24 07:44:12;;;;;;;11.40;2.78;;;;;;;11.55;90.05;101368.31;5033793;28;20060;-68
2023/11/24 07:46:39;;;;;;;11.02;3.00;;;;;;;11.53;89.41;101371.38;5050273;28;20064;-72
2023/11/24 07:49:07;;;;;;;12.70;3.05;;;;;;;11.38;88.74;101362.56;5017258;28;20048;-73
2023/11/24 07:51:35;;;;;;;15.80;3.13;;;;;;;11.66;85.97;101361.53;5050015;28;20052;-74
2023/11/24 07:54:03;;;;;;;18.80;3.55;;;;;;;11.57;84.51;101366.06;5051512;28;20159;-72
2023/11/24 07:56:34;;;;;;;17.73;2.63;;;;;;;11.72;83.35;101377.69;5051111;28;20200;-67
2023/11/24 07:59:01;;;;;;;12.93;2.70;;;;;;;11.54;81.62;101375.75;5033696;28;20045;-66
2023/11/24 08:01:31;;;;;;;18.58;3.53;;;;;;;11.75;81.52;101374.28;5051559;28;20056;-68
2023/11/24 08:04:00;;;;;;;15.38;2.65;;;;;;;11.67;79.50;101375.03;5049624;28;20411;-68
2023/11/24 08:06:45;;;;;;;15.10;2.78;;;;;;;11.57;79.09;101379.88;5044281;28;20053;-67
2023/11/24 08:09:25;;;;;;;;;;;;;;;11.61;78.92;101369.88;5032546;28;20037;-68
2023/11/24 08:12:10;;;;;;;17.63;2.90;;;;;;;11.48;77.88;101373.41;5047098;28;19921;-73
2023/11/24 08:14:46;;;;;;;14.77;3.08;;;;;;;11.62;78.06;101377.84;5042742;28;20056;-70
2023/11/24 08:17:14;;;;;;;12.68;2.85;;;;;;;11.57;78.86;101385.38;5051919;28;20060;-70
2023/11/24 08:19:41;;;;;;;15.05;3.05;;;;;;;11.86;78.67;101375.75;5046952;28;20055;-69
2023/11/24 08:22:09;;;;;;;24.00;3.83;;;;;;;11.73;77.99;101370.22;5044312;28;20044;-66
2023/11/24 08:24:38;;;;;;;18.27;2.97;;;;;;;11.67;79.65;101382.47;5062704;28;20052;-67
2023/11/24 08:27:06;;;;;;;14.45;2.83;;;;;;;11.66;78.80;101373.41;5035731;28;20053;-67
2023/11/24 08:29:33;;;;;;;23.35;4.57;;;;;;;11.63;77.00;101373.16;5046015;28;20052;-67
2023/11/24 08:32:00;;;;;;;18.45;3.22;;;;;;;11.90;77.27;101365.75;5044635;28;20071;-67
2023/11/24 08:34:27;;;;;;;15.38;2.97;;;;;;;11.53;76.03;101363.09;5034451;28;20049;-65
2023/11/24 08:36:55;;;;;;;21.95;3.70;;;;;;;11.26;78.22;101371.34;5050609;28;20056;-66
2023/11/24 08:39:22;;;;;;;18.55;3.50;;;;;;;11.33;77.33;101369.00;5051378;28;20057;-71
2023/11/24 08:41:49;;;;;;;18.77;4.15;;;;;;;11.43;80.04;101370.75;5045940;28;20037;-66
2023/11/24 08:44:17;;;;;;;17.38;2.72;;;;;;;11.23;78.28;101369.16;5058131;28;20512;-66
2023/11/24 08:46:44;;;;;;;18.60;3.40;;;;;;;11.92;80.23;101362.66;5052731;28;20428;-66
2023/11/24 08:49:12;;;;;;;20.02;3.22;;;;;;;11.81;78.31;101358.47;5052054;28;20063;-66
2023/11/24 08:51:39;;;;;;;11.40;4.25;;;;;;;11.98;77.80;101367.78;5049656;28;20045;-67
2023/11/24 08:54:07;;;;;;;18.27;3.08;;;;;;;11.84;77.01;101360.59;5035084;28;20061;-66
2023/11/24 08:56:34;;;;;;;16.38;3.13;;;;;;;11.52;77.96;101361.47;5054695;28;20045;-65
2023/11/24 08:59:03;;;;;;;15.70;2.70;;;;;;;11.39;77.78;101370.53;5055898;28;20049;-66
2023/11/24 09:01:30;;;;;;;13.43;3.70;;;;;;;11.32;78.21;101359.91;5048362;28;20049;-66
2023/11/24 09:03:58;;;;;;;20.70;3.33;;;;;;;11.16;78.14;101366.78;5048349;28;20057;-66
2023/11/24 09:06:31;;;;;;;17.20;3.10;;;;;;;11.28;79.15;101358.03;5050041;28;20049;-66
2023/11/24 09:09:00;;;;;;;20.05;3.17;;;;;;;11.31;77.10;101357.44;5049016;28;20053;-66
2023/11/24 09:11:27;;;;;;;17.38;3.22;;;;;;;11.63;75.94;101353.84;5056565;28;20428;-66
2023/11/24 09:13:54;;;;;;;15.73;2.63;;;;;;;11.37;76.69;101355.44;5053756;28;20080;-63
2023/11/24 09:16:21;;;;;;;22.35;3.20;;;;;;;11.17;77.00;101351.91;5053924;28;20052;-66
2023/11/24 09:18:49;;;;;;;19.05;2.88;;;;;;;11.12;75.93;101342.91;5052798;28;20056;-66
2023/11/24 09:21:17;;;;;;;20.17;2.97;;;;;;;11.28;75.81;101347.00;5053175;28;20049;-65
2023/11/24 09:23:45;;;;;;;18.00;3.15;;;;;;;11.48;75.14;101348.59;5051829;28;20068;-66
2023/11/24 09:26:12;;;;;;;19.80;3.90;;;;;;;11.41;74.48;101343.47;5053772;28;20041;-66
2023/11/24 09:28:40;;;;;;;15.73;2.63;;;;;;;11.38;77.81;101350.41;5052360;28;20049;-66
2023/11/24 09:31:12;;;;;;;14.25;2.90;;;;;;;11.57;76.28;101341.25;5025429;28;20044;-66
2023/11/24 09:33:41;;;;;;;14.80;3.50;;;;;;;11.30;77.28;101337.31;5038820;28;20120;-65
2023/11/24 09:36:09;;;;;;;17.20;3.20;;;;;;;11.30;77.23;101342.84;5062576;28;20535;-65
2023/11/24 09:38:36;;;;;;;16.95;3.10;;;;;;;11.44;78.23;101340.09;5058623;28;20057;-66
2023/11/24 09:41:08;;;;;;;21.02;4.22;;;;;;;11.36;78.08;101357.34;5053769;28;20538;-65
2023/11/24 09:43:37;;;;;;;18.50;4.05;;;;;;;11.40;77.38;101349.28;5053282;28;20064;-68
2023/11/24 09:46:06;;;;;;;17.92;2.67;;;;;;;11.25;74.96;101348.44;5052078;28;20592;-69
2023/11/24 09:48:34;;;;;;;16.38;2.90;;;;;;;11.12;72.47;101360.22;5044914;28;20052;-69
2023/11/24 09:51:05;;;;;;;17.33;3.20;;;;;;;11.10;72.02;101361.66;5043011;28;20067;-68
2023/11/24 09:53:33;;;;;;;13.43;3.22;;;;;;;11.17;70.88;101364.88;5066666;28;20048;-69
2023/11/24 09:56:04;;;;;;;14.82;2.67;;;;;;;11.07;68.27;101400.88;5052184;28;20059;-69
2023/11/24 09:58:32;;;;;;;27.73;4.13;;;;;;;10.90;67.50;101362.81;5053798;28;20056;-69
2023/11/24 10:01:15;;;;;;;14.93;3.25;;;;;;;11.29;67.71;101348.66;5048403;28;20056;-69
2023/11/24 10:03:50;;;;;;;12.82;2.70;;;;;;;11.36;65.27;101346.31;5051524;28;20041;-69
2023/11/24 10:06:18;;;;;;;19.23;3.55;;;;;;;11.11;64.00;101355.03;5033471;28;20492;-70
2023/11/24 10:08:46;;;;;;;15.40;2.78;;;;;;;10.94;63.89;101341.81;5036751;28;20064;-68
2023/11/24 10:11:13;;;;;;;18.73;3.13;;;;;;;10.84;63.89;101353.00;5051357;28;20049;-68
2023/11/24 10:13:45;;;;;;;17.15;3.67;;;;;;;10.85;64.03;101338.09;5048309;28;20064;-68
2023/11/24 10:16:16;;;;;;;25.63;4.63;;;;;;;11.22;63.79;101331.69;5037418;28;20496;-68
2023/11/24 10:18:43;;;;;;;17.15;3.92;;;;;;;10.99;61.14;101333.47;5046837;28;20053;-70
2023/11/24 10:21:10;;;;;;;12.88;2.53;;;;;;;10.91;62.85;101323.09;5045555;28;21088;-69
2023/11/24 10:23:57;;;;;;;16.10;2.83;;;;;;;11.40;61.30;101317.03;5039453;28;20061;-68
2023/11/24 10:26:27;;;;;;;17.30;3.30;;;;;;;11.61;62.00;101317.44;5035665;28;20054;-68
2023/11/24 10:28:55;;;;;;;13.75;2.83;;;;;;;11.09;61.28;101313.16;5046698;28;20067;-70
2023/11/24 10:31:22;;;;;;;23.95;3.63;;;;;;;11.29;62.26;101313.63;5037662;28;20056;-68
2023/11/24 10:33:50;;;;;;;18.08;3.67;;;;;;;11.41;60.95;101318.66;5045733;28;20060;-68
2023/11/24 10:36:22;;;;;;;15.93;3.38;;;;;;;11.50;60.94;101300.28;5045599;28;20524;-69
2023/11/24 10:38:56;;;;;;;16.00;3.83;;;;;;;11.26;62.01;101303.19;5050985;28;20057;-68
2023/11/24 10:41:24;;;;;;;13.48;3.22;;;;;;;11.08;61.40;101312.34;5052662;28;20156;-69
2023/11/24 10:43:52;;;;;;;23.15;3.53;;;;;;;11.08;62.77;101297.75;5059097;28;20408;-67
2023/11/24 10:46:23;;;;;;;21.63;4.25;;;;;;;11.35;61.74;101301.38;5035858;28;20060;-69
2023/11/24 10:49:05;;;;;;;20.63;3.40;;;;;;;11.12;62.33;101301.53;5039739;28;20444;-67
2023/11/24 10:51:52;;;;;;;15.63;3.10;;;;;;;10.71;63.46;101286.78;5050297;28;20052;-67
2023/11/24 10:54:25;;;;;;;17.40;3.42;;;;;;;10.91;64.29;101276.25;5036249;28;20056;-67
2023/11/24 10:56:56;;;;;;;17.05;3.63;;;;;;;11.36;63.10;101277.38;5043774;28;20065;-67
2023/11/24 10:59:26;;;;;;;19.92;3.25;;;;;;;11.14;62.09;101257.94;5048323;28;20049;-67
2023/11/24 11:01:57;;;;;;;24.10;3.63;;;;;;;11.03;62.24;101256.50;5032055;28;20389;-67
2023/11/24 11:04:27;;;;;;;13.05;2.90;;;;;;;10.84;62.47;101262.06;5062748;28;20059;-67
2023/11/24 11:07:06;;;;;;;17.15;3.05;;;;;;;11.00;62.50;101237.81;5049136;28;20056;-68
2023/11/24 11:09:47;;;;;;;18.83;4.35;;;;;;;11.23;61.94;101248.66;5027964;28;20057;-65
2023/11/24 11:12:38;;;;;;;17.13;3.28;;;;;;;11.09;62.67;101253.31;5042853;28;20083;-66
2023/11/24 11:15:13;;;;;;;17.33;2.92;;;;;;;11.11;61.64;101234.53;5045403;28;20061;-66
2023/11/24 11:17:41;;;;;;;15.00;3.13;;;;;;;11.08;62.38;101235.16;5028227;28;20049;-66
2023/11/24 11:20:12;;;;;;;19.02;3.83;;;;;;;11.13;62.93;101228.72;5025534;28;20512;-71
2023/11/24 11:22:44;;;;;;;18.92;3.65;;;;;;;11.18;61.51;101232.22;5048787;28;20053;-66
2023/11/24 11:25:30;;;;;;;18.83;3.65;;;;;;;11.17;61.73;101240.78;5052386;28;20067;-67
2023/11/24 11:28:23;;;;;;;22.05;4.20;;;;;;;11.07;61.74;101224.44;5047346;28;20053;-67
2023/11/24 11:30:57;;;;;;;24.95;8.07;;;;;;;11.25;61.50;101223.53;5068413;28;20049;-68
2023/11/24 11:33:24;;;;;;;23.45;5.35;;;;;;;11.06;61.67;101220.84;5051102;28;20095;-67
2023/11/24 11:36:05;;;;;;;27.08;7.75;;;;;;;11.11;61.46;101218.00;5033466;28;20052;-66
2023/11/24 11:38:45;;;;;;;17.65;4.55;;;;;;;10.98;62.56;101209.72;5033832;28;20077;-68
2023/11/24 11:41:36;;;;;;;21.05;3.92;;;;;;;10.98;61.48;101221.53;5051172;28;20053;-69
2023/11/24 11:44:46;;;;;;;19.80;4.43;;;;;;;11.08;62.10;101204.00;5046914;28;20042;-67
2023/11/24 11:47:20;;;;;;;17.50;5.50;;;;;;;11.24;62.54;101219.94;5052903;28;20053;-68
2023/11/24 11:49:51;;;;;;;16.35;4.40;;;;;;;11.08;62.09;101206.75;5064653;28;20076;-67
2023/11/24 11:52:21;;;;;;;18.63;5.20;;;;;;;11.11;62.90;101220.75;5043856;28;20048;-67
2023/11/24 11:54:51;;;;;;;27.38;6.35;;;;;;;11.17;62.56;101211.28;5040337;28;20054;-68
2023/11/24 11:57:20;;;;;;;17.27;3.85;;;;;;;10.90;62.33;101230.53;5054053;28;20053;-67
2023/11/24 11:59:48;;;;;;;23.03;5.27;;;;;;;10.90;63.83;101205.72;5052197;28;20045;-68
2023/11/24 12:02:17;;;;;;;22.38;5.35;;;;;;;10.97;64.23;101197.03;5039483;28;20528;-67
2023/11/24 12:04:45;;;;;;;21.52;6.10;;;;;;;10.96;63.17;101200.94;5055560;28;20057;-69
2023/11/24 12:07:14;;;;;;;22.35;5.75;;;;;;;10.90;63.77;101196.63;5064782;28;20053;-67
2023/11/24 12:09:42;;;;;;;25.85;8.48;;;;;;;11.17;64.11;101204.94;5032100;28;20053;-70
2023/11/24 12:12:10;;;;;;;25.77;3.88;;;;;;;11.17;63.39;101196.66;5025538;28;20496;-69
2023/11/24 12:14:41;;;;;;;18.40;4.28;;;;;;;10.87;64.35;101206.34;5049976;28;20056;-70
2023/11/24 12:17:12;;;;;;;22.77;5.22;;;;;;;10.90;64.63;101197.44;5025739;28;20046;-69
2023/11/24 12:19:40;;;;;;;21.38;4.30;;;;;;;10.72;65.15;101198.31;5030561;28;20044;-67